createdAt,value
2022-10-31T00:04:26.835Z,4.17
2022-10-31T00:10:28.707Z,4.60
2022-10-31T00:16:31.322Z,4.57
2022-10-31T00:28:53.102Z,4.47
2022-10-31T00:36:00.765Z,4.43
2022-10-31T00:42:02.777Z,4.50
2022-10-31T00:48:48.254Z,4.20
2022-10-31T00:54:50.303Z,4.07
2022-10-31T01:00:57.920Z,4.77
2022-10-31T01:06:59.994Z,4.60
2022-10-31T01:13:02.100Z,4.37
2022-10-31T01:19:04.171Z,5.03
2022-10-31T01:25:07.218Z,4.80
2022-10-31T01:31:10.409Z,4.97
2022-10-31T01:37:12.499Z,5.30
2022-10-31T01:43:15.224Z,5.20
2022-10-31T01:49:25.767Z,5.40
2022-10-31T01:55:42.486Z,5.23
2022-10-31T02:01:46.803Z,5.50
2022-10-31T02:08:28.057Z,4.80
2022-10-31T02:14:32.219Z,5.77
2022-10-31T02:21:40.610Z,5.27
2022-10-31T02:28:08.525Z,4.90
2022-10-31T02:34:20.105Z,5.57
2022-10-31T02:41:11.199Z,4.97
2022-10-31T02:47:55.418Z,4.37
2022-10-31T02:53:58.900Z,5.53
2022-10-31T03:00:07.332Z,5.27
2022-10-31T03:06:37.267Z,5.23
2022-10-31T03:13:07.362Z,6.20
2022-10-31T03:19:18.925Z,4.93
2022-10-31T03:25:20.924Z,4.90
2022-10-31T03:31:30.428Z,6.53
2022-10-31T03:37:54.963Z,5.50
2022-10-31T03:44:09.498Z,5.10
2022-10-31T03:50:14.442Z,6.37
2022-10-31T03:56:40.600Z,5.40
2022-10-31T04:02:57.973Z,5.77
2022-10-31T04:09:05.670Z,6.00
2022-10-31T04:15:10.602Z,6.13
2022-10-31T04:21:12.495Z,5.50
2022-10-31T04:27:14.355Z,5.10
2022-10-31T04:33:16.888Z,6.10
2022-10-31T04:39:22.751Z,6.27
2022-10-31T04:45:28.704Z,5.53
2022-10-31T04:51:30.595Z,6.20
2022-10-31T04:57:32.473Z,6.07
2022-10-31T05:03:34.381Z,6.00
2022-10-31T05:09:36.303Z,6.43
2022-10-31T05:15:38.366Z,5.80
2022-10-31T05:21:40.287Z,6.47
2022-10-31T05:27:48.441Z,6.77
2022-10-31T05:33:50.446Z,5.17
2022-10-31T05:39:52.330Z,6.80
2022-10-31T05:45:57.758Z,7.03
2022-10-31T05:51:59.699Z,7.37
2022-10-31T05:58:02.184Z,7.20
2022-10-31T06:04:04.307Z,7.63
2022-10-31T06:10:09.041Z,7.83
2022-10-31T06:16:10.923Z,7.20
2022-10-31T06:22:33.921Z,6.73
2022-10-31T06:28:53.286Z,7.63
2022-10-31T06:34:55.396Z,8.07
2022-10-31T06:49:49.533Z,7.80
2022-10-31T06:55:51.520Z,7.30
2022-10-31T07:01:56.731Z,7.87
2022-10-31T07:08:05.741Z,7.50
2022-10-31T07:14:13.522Z,8.83
2022-10-31T07:20:18.872Z,8.77
2022-10-31T07:26:20.966Z,9.13
2022-10-31T07:32:23.367Z,9.80
2022-10-31T07:38:25.233Z,8.90
2022-10-31T07:44:27.134Z,11.77
2022-10-31T07:50:35.265Z,10.57
2022-10-31T07:56:37.158Z,11.93
2022-10-31T08:02:39.302Z,11.67
2022-10-31T08:08:41.251Z,7.50
2022-10-31T08:14:43.278Z,6.70
2022-10-31T08:20:45.248Z,6.20
2022-10-31T08:26:48.299Z,6.97
2022-10-31T08:33:13.272Z,6.60
2022-10-31T08:39:15.185Z,5.63
2022-10-31T08:45:17.081Z,5.40
2022-10-31T08:51:20.189Z,6.30
2022-10-31T08:57:22.127Z,6.00
2022-10-31T09:03:30.165Z,7.00
2022-10-31T09:09:32.061Z,6.60
2022-10-31T09:22:26.328Z,6.57
2022-10-31T09:28:28.252Z,7.70
2022-10-31T09:34:30.843Z,8.33
2022-10-31T09:40:38.731Z,7.37
2022-10-31T09:47:05.657Z,7.37
2022-10-31T09:53:18.487Z,7.60
2022-10-31T09:59:36.062Z,7.97
2022-10-31T10:05:55.670Z,7.77
2022-10-31T10:12:15.914Z,8.30
2022-10-31T10:18:38.909Z,7.70
2022-10-31T10:24:56.040Z,8.30
2022-10-31T10:31:15.825Z,8.40
2022-10-31T10:45:15.579Z,9.97
2022-10-31T10:52:02.803Z,9.63
2022-10-31T10:58:12.053Z,12.27
2022-10-31T11:04:35.370Z,11.57
2022-10-31T11:10:37.468Z,12.60
2022-10-31T11:16:48.572Z,11.80
2022-10-31T11:23:21.436Z,12.67
2022-10-31T11:29:26.743Z,17.07
2022-10-31T11:35:32.754Z,12.10
2022-10-31T11:41:39.714Z,11.30
2022-10-31T11:47:52.940Z,12.13
2022-10-31T11:54:06.000Z,11.07
2022-10-31T12:00:34.752Z,11.20
2022-10-31T12:06:43.626Z,12.10
2022-10-31T12:20:31.542Z,9.97
2022-10-31T12:26:40.760Z,11.57
2022-10-31T12:33:20.195Z,11.77
2022-10-31T12:39:26.793Z,12.07
2022-10-31T12:45:49.662Z,12.20
2022-10-31T12:52:06.384Z,12.10
2022-10-31T12:58:32.459Z,12.90
2022-10-31T13:05:03.324Z,14.07
2022-10-31T13:11:22.491Z,12.77
2022-10-31T13:17:42.675Z,12.83
2022-10-31T13:23:51.205Z,13.20
2022-10-31T13:29:59.746Z,27.40
2022-10-31T13:36:35.429Z,30.13
2022-10-31T13:43:15.580Z,13.47
2022-10-31T13:49:29.457Z,24.00
2022-10-31T13:55:51.243Z,15.93
2022-10-31T14:02:01.368Z,13.33
2022-10-31T14:08:07.515Z,14.47
2022-10-31T14:14:13.662Z,11.80
2022-10-31T14:20:15.827Z,11.27
2022-10-31T14:26:22.184Z,10.60
2022-10-31T14:32:28.694Z,10.43
2022-10-31T14:38:49.749Z,9.57
2022-10-31T14:45:15.887Z,9.63
2022-10-31T14:51:26.348Z,9.23
2022-10-31T14:57:37.800Z,9.17
2022-10-31T15:04:10.122Z,9.07
2022-10-31T15:10:33.369Z,7.10
2022-10-31T15:16:44.252Z,8.10
2022-10-31T15:22:46.969Z,8.80
2022-10-31T15:29:04.706Z,7.83
2022-10-31T15:35:11.684Z,7.73
2022-10-31T15:41:35.820Z,7.33
2022-10-31T15:47:38.705Z,7.37
2022-10-31T15:53:50.826Z,7.37
2022-10-31T15:59:53.933Z,7.83
2022-10-31T16:06:02.874Z,9.00
2022-10-31T16:12:04.867Z,8.90
2022-10-31T16:18:12.361Z,8.90
2022-10-31T16:24:31.626Z,9.77
2022-10-31T16:30:46.800Z,10.60
2022-10-31T16:37:04.443Z,14.80
2022-10-31T16:43:10.127Z,31.23
2022-10-31T16:49:12.716Z,28.87
2022-10-31T16:55:16.731Z,25.87
2022-10-31T17:01:18.794Z,12.07
2022-10-31T17:07:20.731Z,13.77
2022-10-31T17:13:27.675Z,12.90
2022-10-31T17:19:29.814Z,12.67
2022-10-31T17:25:32.143Z,13.70
2022-10-31T17:31:36.708Z,14.63
2022-10-31T17:37:39.922Z,15.27
2022-10-31T17:43:41.995Z,15.10
2022-10-31T17:49:43.916Z,18.00
2022-10-31T17:55:45.991Z,16.73
2022-10-31T18:01:48.036Z,18.93
2022-10-31T18:07:51.233Z,21.73
2022-10-31T18:13:57.599Z,20.10
2022-10-31T18:19:59.555Z,18.97
2022-10-31T18:26:01.640Z,20.80
2022-10-31T18:32:09.062Z,21.53
2022-10-31T18:38:28.043Z,20.67
2022-10-31T18:44:30.514Z,21.07
2022-10-31T18:50:32.653Z,21.50
2022-10-31T18:56:34.587Z,21.87
2022-10-31T19:02:36.779Z,22.60
2022-10-31T19:08:39.600Z,22.63
2022-10-31T19:14:41.550Z,22.40
2022-10-31T19:20:44.000Z,22.30
2022-10-31T19:26:46.069Z,20.97
2022-10-31T19:32:48.647Z,26.50
2022-10-31T19:38:54.244Z,22.17
2022-10-31T19:44:56.664Z,23.67
2022-10-31T19:51:08.279Z,22.97
2022-10-31T19:57:48.918Z,20.30
2022-10-31T20:04:34.311Z,19.60
2022-10-31T20:10:36.394Z,23.23
2022-10-31T20:16:39.956Z,19.37
2022-10-31T20:22:42.433Z,20.27
2022-10-31T20:28:48.579Z,18.93
2022-10-31T20:42:42.400Z,22.07
2022-10-31T20:48:44.744Z,24.50
2022-10-31T20:54:57.398Z,25.67
2022-10-31T21:07:17.493Z,26.63
2022-10-31T21:13:20.088Z,28.47
2022-10-31T21:19:22.123Z,29.13
2022-10-31T21:25:24.117Z,27.30
2022-10-31T21:31:34.812Z,28.80
2022-10-31T21:37:36.964Z,30.00
2022-10-31T21:43:41.894Z,32.53
2022-10-31T21:49:44.702Z,34.80
2022-10-31T21:56:04.283Z,34.37
2022-10-31T22:02:10.246Z,36.20
2022-10-31T22:08:12.865Z,33.90
2022-10-31T22:14:16.076Z,33.27
2022-10-31T22:20:18.095Z,29.93
2022-10-31T22:26:20.895Z,28.90
2022-10-31T22:32:23.502Z,30.47
2022-10-31T22:44:42.917Z,33.00
2022-10-31T22:50:44.939Z,32.37
2022-10-31T22:56:47.185Z,35.63
2022-10-31T23:02:49.054Z,34.97
2022-10-31T23:08:52.407Z,33.23
2022-10-31T23:14:54.341Z,33.40
2022-10-31T23:20:56.315Z,33.80
2022-10-31T23:27:12.245Z,34.07
2022-10-31T23:33:14.196Z,36.20
2022-10-31T23:39:18.805Z,39.67
2022-10-31T23:45:23.356Z,43.60
2022-10-31T23:51:25.281Z,46.50
2022-10-31T23:57:27.214Z,46.20
